sensor_id;sensor_type;location;lat;lon;timestamp;pressure;altitude;pressure_sealevel;temperature;humidity
9523;BME280;63165;43.016;25.784;2023-06-22T00:00:24;100147.31;;;20.52;100.00
9523;BME280;63165;43.016;25.784;2023-06-22T00:02:51;100305.31;;;21.28;100.00
9523;BME280;63165;43.016;25.784;2023-06-22T00:05:18;100253.78;;;20.99;100.00
9523;BME280;63165;43.016;25.784;2023-06-22T00:07:47;100274.66;;;21.21;100.00
9523;BME280;63165;43.016;25.784;2023-06-22T00:10:15;100273.22;;;21.15;100.00
9523;BME280;63165;43.016;25.784;2023-06-22T00:12:42;100271.53;;;21.14;100.00
9523;BME280;63165;43.016;25.784;2023-06-22T00:15:09;100277.84;;;21.11;100.00
9523;BME280;63165;43.016;25.784;2023-06-22T00:17:36;100070.28;;;19.89;100.00
9523;BME280;63165;43.016;25.784;2023-06-22T00:20:04;100263.97;;;21.06;100.00
9523;BME280;63165;43.016;25.784;2023-06-22T00:22:32;100273.84;;;21.04;100.00
9523;BME280;63165;43.016;25.784;2023-06-22T00:25:07;100284.56;;;21.03;100.00
9523;BME280;63165;43.016;25.784;2023-06-22T00:27:34;100278.50;;;21.01;100.00
9523;BME280;63165;43.016;25.784;2023-06-22T00:30:02;100284.66;;;21.01;100.00
9523;BME280;63165;43.016;25.784;2023-06-22T00:32:29;100281.06;;;21.02;100.00
9523;BME280;63165;43.016;25.784;2023-06-22T00:34:57;100289.03;;;21.02;100.00
9523;BME280;63165;43.016;25.784;2023-06-22T00:37:25;100249.22;;;20.85;100.00
9523;BME280;63165;43.016;25.784;2023-06-22T00:39:55;100276.00;;;20.98;100.00
9523;BME280;63165;43.016;25.784;2023-06-22T00:42:24;100266.38;;;20.95;100.00
9523;BME280;63165;43.016;25.784;2023-06-22T00:44:51;100269.97;;;20.94;100.00
9523;BME280;63165;43.016;25.784;2023-06-22T00:47:18;100270.34;;;20.88;100.00
9523;BME280;63165;43.016;25.784;2023-06-22T00:49:49;100193.00;;;20.27;100.00
9523;BME280;63165;43.016;25.784;2023-06-22T00:52:19;100275.19;;;20.80;100.00
9523;BME280;63165;43.016;25.784;2023-06-22T00:54:47;100266.66;;;20.74;100.00
9523;BME280;63165;43.016;25.784;2023-06-22T00:57:14;100246.19;;;20.59;100.00
9523;BME280;63165;43.016;25.784;2023-06-22T00:59:50;100266.19;;;20.66;100.00
9523;BME280;63165;43.016;25.784;2023-06-22T01:02:18;100218.22;;;20.03;100.00
9523;BME280;63165;43.016;25.784;2023-06-22T01:04:45;100261.47;;;20.55;100.00
9523;BME280;63165;43.016;25.784;2023-06-22T01:07:21;100261.63;;;20.52;100.00
9523;BME280;63165;43.016;25.784;2023-06-22T01:09:59;100290.16;;;20.49;100.00
9523;BME280;63165;43.016;25.784;2023-06-22T01:12:28;100252.69;;;20.38;100.00
9523;BME280;63165;43.016;25.784;2023-06-22T01:15:03;100261.97;;;20.46;100.00
9523;BME280;63165;43.016;25.784;2023-06-22T01:17:32;100255.06;;;20.42;100.00
9523;BME280;63165;43.016;25.784;2023-06-22T01:20:00;100289.81;;;20.39;100.00
9523;BME280;63165;43.016;25.784;2023-06-22T01:22:33;100252.69;;;20.38;100.00
9523;BME280;63165;43.016;25.784;2023-06-22T01:25:18;100253.59;;;20.36;100.00
9523;BME280;63165;43.016;25.784;2023-06-22T01:27:52;100281.13;;;20.35;100.00
9523;BME280;63165;43.016;25.784;2023-06-22T01:30:24;100240.50;;;20.33;100.00
9523;BME280;63165;43.016;25.784;2023-06-22T01:32:54;100250.25;;;20.33;100.00
9523;BME280;63165;43.016;25.784;2023-06-22T01:35:22;100256.44;;;20.33;100.00
9523;BME280;63165;43.016;25.784;2023-06-22T01:37:51;100253.88;;;20.32;100.00
9523;BME280;63165;43.016;25.784;2023-06-22T01:40:19;100262.00;;;20.29;100.00
9523;BME280;63165;43.016;25.784;2023-06-22T01:42:48;100259.75;;;20.21;100.00
9523;BME280;63165;43.016;25.784;2023-06-22T01:45:17;100152.88;;;19.49;100.00
9523;BME280;63165;43.016;25.784;2023-06-22T01:47:47;100260.31;;;20.10;100.00
9523;BME280;63165;43.016;25.784;2023-06-22T01:50:14;100267.50;;;20.08;100.00
9523;BME280;63165;43.016;25.784;2023-06-22T01:52:42;100240.91;;;19.92;100.00
9523;BME280;63165;43.016;25.784;2023-06-22T01:55:09;100267.91;;;20.01;100.00
9523;BME280;63165;43.016;25.784;2023-06-22T01:57:36;100269.03;;;19.96;100.00
9523;BME280;63165;43.016;25.784;2023-06-22T02:00:07;100269.94;;;19.95;100.00
9523;BME280;63165;43.016;25.784;2023-06-22T02:02:39;100276.06;;;19.97;100.00
9523;BME280;63165;43.016;25.784;2023-06-22T02:05:10;100273.31;;;19.99;100.00
9523;BME280;63165;43.016;25.784;2023-06-22T02:07:43;100249.44;;;19.82;100.00
9523;BME280;63165;43.016;25.784;2023-06-22T02:10:14;100256.69;;;19.78;100.00
9523;BME280;63165;43.016;25.784;2023-06-22T02:12:43;100288.31;;;20.00;100.00
9523;BME280;63165;43.016;25.784;2023-06-22T02:15:11;100283.78;;;20.02;100.00
9523;BME280;63165;43.016;25.784;2023-06-22T02:17:40;100237.69;;;19.68;100.00
9523;BME280;63165;43.016;25.784;2023-06-22T02:20:14;100277.41;;;19.89;100.00
9523;BME280;63165;43.016;25.784;2023-06-22T02:22:42;100305.28;;;19.97;100.00
9523;BME280;63165;43.016;25.784;2023-06-22T02:25:09;100256.22;;;19.70;100.00
9523;BME280;63165;43.016;25.784;2023-06-22T02:27:36;100310.75;;;19.94;100.00
9523;BME280;63165;43.016;25.784;2023-06-22T02:30:07;100297.47;;;19.94;100.00
9523;BME280;63165;43.016;25.784;2023-06-22T02:32:35;100309.19;;;19.90;100.00
9523;BME280;63165;43.016;25.784;2023-06-22T02:35:03;100315.41;;;19.89;100.00
9523;BME280;63165;43.016;25.784;2023-06-22T02:37:33;100320.88;;;19.86;100.00
9523;BME280;63165;43.016;25.784;2023-06-22T02:40:05;100328.00;;;19.86;100.00
9523;BME280;63165;43.016;25.784;2023-06-22T02:42:34;100327.13;;;19.85;100.00
9523;BME280;63165;43.016;25.784;2023-06-22T02:45:02;100353.00;;;19.82;100.00
9523;BME280;63165;43.016;25.784;2023-06-22T02:47:29;100332.78;;;19.79;100.00
9523;BME280;63165;43.016;25.784;2023-06-22T02:49:57;100324.03;;;19.77;100.00
9523;BME280;63165;43.016;25.784;2023-06-22T02:52:24;100285.38;;;19.35;100.00
9523;BME280;63165;43.016;25.784;2023-06-22T02:54:53;100313.19;;;19.63;100.00
9523;BME280;63165;43.016;25.784;2023-06-22T02:57:20;100332.97;;;19.74;100.00
9523;BME280;63165;43.016;25.784;2023-06-22T02:59:48;100323.22;;;19.75;100.00
9523;BME280;63165;43.016;25.784;2023-06-22T03:02:15;100327.75;;;19.73;100.00
9523;BME280;63165;43.016;25.784;2023-06-22T03:04:43;100332.25;;;19.71;100.00
9523;BME280;63165;43.016;25.784;2023-06-22T03:07:14;100334.97;;;19.69;100.00
9523;BME280;63165;43.016;25.784;2023-06-22T03:09:43;100268.03;;;19.28;100.00
9523;BME280;63165;43.016;25.784;2023-06-22T03:12:11;100336.84;;;19.67;100.00
9523;BME280;63165;43.016;25.784;2023-06-22T03:14:39;100334.44;;;19.63;100.00
9523;BME280;63165;43.016;25.784;2023-06-22T03:17:06;100342.47;;;19.61;100.00
9523;BME280;63165;43.016;25.784;2023-06-22T03:19:33;100342.59;;;19.58;100.00
9523;BME280;63165;43.016;25.784;2023-06-22T03:22:01;100338.97;;;19.61;100.00
9523;BME280;63165;43.016;25.784;2023-06-22T03:24:28;100221.69;;;18.43;100.00
9523;BME280;63165;43.016;25.784;2023-06-22T03:26:55;100323.56;;;19.50;100.00
9523;BME280;63165;43.016;25.784;2023-06-22T03:29:25;100343.25;;;19.63;100.00
9523;BME280;63165;43.016;25.784;2023-06-22T03:31:52;100343.19;;;19.65;100.00
9523;BME280;63165;43.016;25.784;2023-06-22T03:34:19;100291.06;;;19.27;100.00
9523;BME280;63165;43.016;25.784;2023-06-22T03:36:47;100349.91;;;19.72;100.00
9523;BME280;63165;43.016;25.784;2023-06-22T03:39:14;100347.25;;;19.72;100.00
9523;BME280;63165;43.016;25.784;2023-06-22T03:41:41;100348.13;;;19.72;100.00
9523;BME280;63165;43.016;25.784;2023-06-22T03:44:09;100341.72;;;19.76;100.00
9523;BME280;63165;43.016;25.784;2023-06-22T03:46:39;100339.97;;;19.77;100.00
9523;BME280;63165;43.016;25.784;2023-06-22T03:49:07;100322.50;;;19.71;100.00
9523;BME280;63165;43.016;25.784;2023-06-22T03:51:34;100349.22;;;19.86;100.00
9523;BME280;63165;43.016;25.784;2023-06-22T03:54:02;100351.75;;;19.89;100.00
9523;BME280;63165;43.016;25.784;2023-06-22T03:56:29;100353.22;;;19.94;100.00
9523;BME280;63165;43.016;25.784;2023-06-22T03:58:57;100357.38;;;20.00;100.00
9523;BME280;63165;43.016;25.784;2023-06-22T04:01:24;100295.25;;;19.68;100.00
9523;BME280;63165;43.016;25.784;2023-06-22T04:03:53;100359.47;;;20.11;100.00
9523;BME280;63165;43.016;25.784;2023-06-22T04:06:20;100338.78;;;20.00;100.00
9523;BME280;63165;43.016;25.784;2023-06-22T04:08:48;100322.25;;;19.58;100.00
9523;BME280;63165;43.016;25.784;2023-06-22T04:11:16;100357.91;;;20.24;100.00
9523;BME280;63165;43.016;25.784;2023-06-22T04:13:44;100365.81;;;20.26;100.00
9523;BME280;63165;43.016;25.784;2023-06-22T04:16:11;100357.88;;;20.42;100.00
9523;BME280;63165;43.016;25.784;2023-06-22T04:18:39;100281.84;;;19.88;100.00
9523;BME280;63165;43.016;25.784;2023-06-22T04:21:10;100366.69;;;20.60;100.00
9523;BME280;63165;43.016;25.784;2023-06-22T04:23:37;100233.16;;;19.88;100.00
9523;BME280;63165;43.016;25.784;2023-06-22T04:26:04;100365.88;;;20.75;100.00
9523;BME280;63165;43.016;25.784;2023-06-22T04:28:32;100293.84;;;19.95;100.00
9523;BME280;63165;43.016;25.784;2023-06-22T04:31:01;100380.84;;;20.93;100.00
9523;BME280;63165;43.016;25.784;2023-06-22T04:33:28;100381.13;;;21.05;100.00
9523;BME280;63165;43.016;25.784;2023-06-22T04:35:56;100369.00;;;21.15;100.00
9523;BME280;63165;43.016;25.784;2023-06-22T04:38:25;100374.69;;;21.25;100.00
9523;BME280;63165;43.016;25.784;2023-06-22T04:40:52;100384.84;;;21.34;100.00
9523;BME280;63165;43.016;25.784;2023-06-22T04:43:20;100376.28;;;21.43;100.00
9523;BME280;63165;43.016;25.784;2023-06-22T04:45:48;100384.69;;;21.53;100.00
9523;BME280;63165;43.016;25.784;2023-06-22T04:48:18;100413.22;;;21.33;100.00
9523;BME280;63165;43.016;25.784;2023-06-22T04:50:45;100370.56;;;21.35;100.00
9523;BME280;63165;43.016;25.784;2023-06-22T04:53:13;100390.19;;;21.80;100.00
9523;BME280;63165;43.016;25.784;2023-06-22T04:55:42;100386.06;;;21.90;100.00
9523;BME280;63165;43.016;25.784;2023-06-22T04:58:11;100382.75;;;22.01;100.00
9523;BME280;63165;43.016;25.784;2023-06-22T05:00:38;100378.78;;;22.08;100.00
9523;BME280;63165;43.016;25.784;2023-06-22T05:03:06;100397.38;;;22.24;100.00
9523;BME280;63165;43.016;25.784;2023-06-22T05:05:36;100345.00;;;22.09;100.00
9523;BME280;63165;43.016;25.784;2023-06-22T05:08:04;100389.16;;;22.43;100.00
9523;BME280;63165;43.016;25.784;2023-06-22T05:10:32;100379.56;;;22.55;100.00
9523;BME280;63165;43.016;25.784;2023-06-22T05:13:01;100379.56;;;22.70;100.00
9523;BME280;63165;43.016;25.784;2023-06-22T05:15:28;100406.44;;;22.81;100.00
9523;BME280;63165;43.016;25.784;2023-06-22T05:18:01;100381.94;;;22.88;100.00
9523;BME280;63165;43.016;25.784;2023-06-22T05:20:31;100336.03;;;22.69;100.00
9523;BME280;63165;43.016;25.784;2023-06-22T05:22:59;100376.59;;;23.17;99.71
9523;BME280;63165;43.016;25.784;2023-06-22T05:25:27;100334.50;;;23.08;98.10
9523;BME280;63165;43.016;25.784;2023-06-22T05:27:55;100373.19;;;23.42;95.45
9523;BME280;63165;43.016;25.784;2023-06-22T05:30:24;100376.97;;;23.53;96.10
9523;BME280;63165;43.016;25.784;2023-06-22T05:32:51;100319.66;;;23.31;95.41
9523;BME280;63165;43.016;25.784;2023-06-22T05:35:19;100380.63;;;23.79;94.21
9523;BME280;63165;43.016;25.784;2023-06-22T05:37:46;100380.56;;;23.93;91.13
9523;BME280;63165;43.016;25.784;2023-06-22T05:40:14;100380.59;;;24.06;89.58
9523;BME280;63165;43.016;25.784;2023-06-22T05:42:41;100381.56;;;24.18;89.76
9523;BME280;63165;43.016;25.784;2023-06-22T05:45:09;100387.78;;;24.31;89.94
9523;BME280;63165;43.016;25.784;2023-06-22T05:47:38;100362.22;;;24.27;88.87
9523;BME280;63165;43.016;25.784;2023-06-22T05:50:06;100382.03;;;24.50;84.07
9523;BME280;63165;43.016;25.784;2023-06-22T05:52:34;100377.88;;;24.59;84.78
9523;BME280;63165;43.016;25.784;2023-06-22T05:55:02;100340.19;;;24.36;83.85
9523;BME280;63165;43.016;25.784;2023-06-22T05:57:29;100379.16;;;24.79;83.21
9523;BME280;63165;43.016;25.784;2023-06-22T05:59:57;100369.38;;;24.91;83.16
9523;BME280;63165;43.016;25.784;2023-06-22T06:02:24;100373.88;;;25.03;82.82
9523;BME280;63165;43.016;25.784;2023-06-22T06:04:53;100245.28;;;24.42;81.87
9523;BME280;63165;43.016;25.784;2023-06-22T06:07:21;100373.94;;;25.27;80.68
9523;BME280;63165;43.016;25.784;2023-06-22T06:09:48;100348.38;;;25.23;81.46
9523;BME280;63165;43.016;25.784;2023-06-22T06:12:16;100247.75;;;24.71;81.83
9523;BME280;63165;43.016;25.784;2023-06-22T06:14:43;100374.75;;;25.65;80.99
9523;BME280;63165;43.016;25.784;2023-06-22T06:17:10;100358.56;;;25.66;81.00
9523;BME280;63165;43.016;25.784;2023-06-22T06:19:39;100377.28;;;25.90;79.19
9523;BME280;63165;43.016;25.784;2023-06-22T06:22:07;100381.00;;;26.01;79.11
9523;BME280;63165;43.016;25.784;2023-06-22T06:24:35;100361.63;;;25.97;76.58
9523;BME280;63165;43.016;25.784;2023-06-22T06:27:04;100377.28;;;26.26;76.51
9523;BME280;63165;43.016;25.784;2023-06-22T06:29:31;100382.44;;;26.40;74.97
9523;BME280;63165;43.016;25.784;2023-06-22T06:31:59;100397.72;;;26.51;76.10
9523;BME280;63165;43.016;25.784;2023-06-22T06:34:26;100390.06;;;26.69;75.65
9523;BME280;63165;43.016;25.784;2023-06-22T06:36:54;100381.66;;;26.85;74.94
9523;BME280;63165;43.016;25.784;2023-06-22T06:39:23;100375.31;;;26.97;70.31
9523;BME280;63165;43.016;25.784;2023-06-22T06:41:51;100385.91;;;27.10;67.25
9523;BME280;63165;43.016;25.784;2023-06-22T06:44:18;100374.41;;;27.19;67.94
9523;BME280;63165;43.016;25.784;2023-06-22T06:46:46;100316.38;;;26.96;67.16
9523;BME280;63165;43.016;25.784;2023-06-22T06:49:14;100284.63;;;26.89;68.35
9523;BME280;63165;43.016;25.784;2023-06-22T06:51:42;100375.69;;;27.59;67.70
9523;BME280;63165;43.016;25.784;2023-06-22T06:54:09;100371.00;;;27.72;66.64
9523;BME280;63165;43.016;25.784;2023-06-22T06:56:38;100368.28;;;27.83;63.28
9523;BME280;63165;43.016;25.784;2023-06-22T06:59:05;100370.81;;;27.96;63.88
9523;BME280;63165;43.016;25.784;2023-06-22T07:01:34;100290.25;;;27.62;62.54
9523;BME280;63165;43.016;25.784;2023-06-22T07:04:03;100369.94;;;28.17;62.29
9523;BME280;63165;43.016;25.784;2023-06-22T07:06:31;100368.91;;;28.29;61.71
9523;BME280;63165;43.016;25.784;2023-06-22T07:08:59;100367.13;;;28.39;61.61
9523;BME280;63165;43.016;25.784;2023-06-22T07:11:28;100332.34;;;28.26;60.51
9523;BME280;63165;43.016;25.784;2023-06-22T07:13:56;100333.19;;;28.27;59.74
9523;BME280;63165;43.016;25.784;2023-06-22T07:16:25;100371.66;;;28.60;58.72
9523;BME280;63165;43.016;25.784;2023-06-22T07:18:54;100367.28;;;28.69;58.17
9523;BME280;63165;43.016;25.784;2023-06-22T07:21:24;100369.13;;;28.68;57.95
9523;BME280;63165;43.016;25.784;2023-06-22T07:23:51;100363.78;;;28.78;58.63
9523;BME280;63165;43.016;25.784;2023-06-22T07:26:21;100362.41;;;28.83;56.66
9523;BME280;63165;43.016;25.784;2023-06-22T07:28:50;100326.66;;;28.72;56.67
9523;BME280;63165;43.016;25.784;2023-06-22T07:31:20;100364.88;;;29.06;56.13
9523;BME280;63165;43.016;25.784;2023-06-22T07:33:48;100362.81;;;29.19;57.10
9523;BME280;63165;43.016;25.784;2023-06-22T07:36:17;100359.16;;;29.30;55.92
9523;BME280;63165;43.016;25.784;2023-06-22T07:38:44;100367.25;;;29.40;56.65
9523;BME280;63165;43.016;25.784;2023-06-22T07:41:12;100354.91;;;29.47;56.64
9523;BME280;63165;43.016;25.784;2023-06-22T07:43:39;100363.31;;;29.64;56.24
9523;BME280;63165;43.016;25.784;2023-06-22T07:46:07;100344.56;;;29.62;54.85
9523;BME280;63165;43.016;25.784;2023-06-22T07:48:45;100356.97;;;29.74;57.08
9523;BME280;63165;43.016;25.784;2023-06-22T07:51:15;100309.09;;;29.47;55.48
9523;BME280;63165;43.016;25.784;2023-06-22T07:53:46;100363.63;;;29.90;55.70
9523;BME280;63165;43.016;25.784;2023-06-22T07:56:16;100370.00;;;29.98;55.35
9523;BME280;63165;43.016;25.784;2023-06-22T07:58:46;100364.59;;;30.08;53.27
9523;BME280;63165;43.016;25.784;2023-06-22T08:01:14;100310.97;;;29.86;53.14
9523;BME280;63165;43.016;25.784;2023-06-22T08:03:44;100354.06;;;30.25;55.00
9523;BME280;63165;43.016;25.784;2023-06-22T08:06:11;100362.56;;;30.40;55.17
9523;BME280;63165;43.016;25.784;2023-06-22T08:08:38;100365.91;;;30.61;55.35
9523;BME280;63165;43.016;25.784;2023-06-22T08:11:05;100356.78;;;30.72;55.10
9523;BME280;63165;43.016;25.784;2023-06-22T08:13:32;100360.81;;;30.86;55.04
9523;BME280;63165;43.016;25.784;2023-06-22T08:15:59;100359.38;;;31.01;54.98
9523;BME280;63165;43.016;25.784;2023-06-22T08:18:26;100347.34;;;31.13;54.91
9523;BME280;63165;43.016;25.784;2023-06-22T08:20:55;100350.50;;;31.27;54.91
9523;BME280;63165;43.016;25.784;2023-06-22T08:23:23;100345.44;;;31.42;54.97
9523;BME280;63165;43.016;25.784;2023-06-22T08:25:50;100346.63;;;31.57;54.86
9523;BME280;63165;43.016;25.784;2023-06-22T08:28:17;100343.38;;;31.71;54.72
9523;BME280;63165;43.016;25.784;2023-06-22T08:30:43;100348.09;;;31.87;54.47
9523;BME280;63165;43.016;25.784;2023-06-22T08:33:10;100348.22;;;32.04;54.39
9523;BME280;63165;43.016;25.784;2023-06-22T08:35:38;100346.91;;;32.08;53.88
9523;BME280;63165;43.016;25.784;2023-06-22T08:38:06;100341.84;;;32.13;54.27
9523;BME280;63165;43.016;25.784;2023-06-22T08:40:34;100346.28;;;32.14;54.16
9523;BME280;63165;43.016;25.784;2023-06-22T08:43:01;100343.97;;;32.19;53.96
9523;BME280;63165;43.016;25.784;2023-06-22T08:45:28;100341.59;;;32.24;54.17
9523;BME280;63165;43.016;25.784;2023-06-22T08:47:55;100351.63;;;32.32;53.80
9523;BME280;63165;43.016;25.784;2023-06-22T08:50:22;100344.56;;;32.39;53.42
9523;BME280;63165;43.016;25.784;2023-06-22T08:52:49;100349.53;;;32.44;52.97
9523;BME280;63165;43.016;25.784;2023-06-22T08:55:18;100349.41;;;32.54;53.24
9523;BME280;63165;43.016;25.784;2023-06-22T08:57:45;100353.38;;;32.67;52.72
9523;BME280;63165;43.016;25.784;2023-06-22T09:00:12;100343.66;;;32.83;52.36
9523;BME280;63165;43.016;25.784;2023-06-22T09:02:44;100354.34;;;32.93;52.10
9523;BME280;63165;43.016;25.784;2023-06-22T09:05:12;100349.63;;;32.95;51.20
9523;BME280;63165;43.016;25.784;2023-06-22T09:07:39;100352.00;;;32.98;50.39
9523;BME280;63165;43.016;25.784;2023-06-22T09:10:07;100349.81;;;33.01;49.78
9523;BME280;63165;43.016;25.784;2023-06-22T09:12:35;100350.16;;;33.06;49.67
9523;BME280;63165;43.016;25.784;2023-06-22T09:15:03;100350.91;;;33.17;49.35
9523;BME280;63165;43.016;25.784;2023-06-22T09:17:32;100345.00;;;33.30;48.98
9523;BME280;63165;43.016;25.784;2023-06-22T09:19:59;100347.72;;;33.38;48.67
9523;BME280;63165;43.016;25.784;2023-06-22T09:22:27;100348.44;;;33.48;48.72
9523;BME280;63165;43.016;25.784;2023-06-22T09:24:54;100351.31;;;33.55;48.71
9523;BME280;63165;43.016;25.784;2023-06-22T09:27:22;100343.91;;;33.65;48.32
9523;BME280;63165;43.016;25.784;2023-06-22T09:29:51;100349.31;;;33.73;47.85
9523;BME280;63165;43.016;25.784;2023-06-22T09:32:18;100345.25;;;33.77;46.83
9523;BME280;63165;43.016;25.784;2023-06-22T09:34:44;100344.91;;;33.80;46.14
9523;BME280;63165;43.016;25.784;2023-06-22T09:37:11;100350.69;;;33.86;46.30
9523;BME280;63165;43.016;25.784;2023-06-22T09:39:38;100343.22;;;33.88;45.88
9523;BME280;63165;43.016;25.784;2023-06-22T09:42:06;100341.50;;;33.95;45.94
9523;BME280;63165;43.016;25.784;2023-06-22T09:44:33;100333.69;;;34.00;45.82
9523;BME280;63165;43.016;25.784;2023-06-22T09:47:01;100331.50;;;34.12;46.09
9523;BME280;63165;43.016;25.784;2023-06-22T09:49:28;100325.56;;;34.16;45.45
9523;BME280;63165;43.016;25.784;2023-06-22T09:51:56;100336.06;;;34.28;45.79
9523;BME280;63165;43.016;25.784;2023-06-22T09:54:22;100331.28;;;34.38;45.14
9523;BME280;63165;43.016;25.784;2023-06-22T09:56:50;100326.53;;;34.40;44.65
9523;BME280;63165;43.016;25.784;2023-06-22T09:59:17;100325.16;;;34.44;44.48
9523;BME280;63165;43.016;25.784;2023-06-22T10:01:43;100323.44;;;34.51;44.20
9523;BME280;63165;43.016;25.784;2023-06-22T10:04:12;100327.03;;;34.44;43.60
9523;BME280;63165;43.016;25.784;2023-06-22T10:06:39;100323.09;;;34.46;43.76
9523;BME280;63165;43.016;25.784;2023-06-22T10:09:06;100321.72;;;34.50;43.67
9523;BME280;63165;43.016;25.784;2023-06-22T10:11:33;100319.69;;;34.52;43.86
9523;BME280;63165;43.016;25.784;2023-06-22T10:14:01;100318.13;;;34.58;43.06
9523;BME280;63165;43.016;25.784;2023-06-22T10:16:32;100320.91;;;34.50;42.38
9523;BME280;63165;43.016;25.784;2023-06-22T10:19:01;100328.22;;;34.49;42.43
9523;BME280;63165;43.016;25.784;2023-06-22T10:21:31;100324.59;;;34.57;42.22
9523;BME280;63165;43.016;25.784;2023-06-22T10:23:58;100326.97;;;34.68;42.56
9523;BME280;63165;43.016;25.784;2023-06-22T10:26:31;100316.22;;;34.75;42.27
9523;BME280;63165;43.016;25.784;2023-06-22T10:28:58;100325.41;;;34.66;40.86
9523;BME280;63165;43.016;25.784;2023-06-22T10:31:25;100322.69;;;34.66;40.41
9523;BME280;63165;43.016;25.784;2023-06-22T10:33:53;100324.75;;;34.72;40.30
9523;BME280;63165;43.016;25.784;2023-06-22T10:36:21;100324.53;;;34.82;40.33
9523;BME280;63165;43.016;25.784;2023-06-22T10:38:50;100316.88;;;34.85;40.13
9523;BME280;63165;43.016;25.784;2023-06-22T10:41:18;100313.59;;;34.90;40.16
9523;BME280;63165;43.016;25.784;2023-06-22T10:43:45;100306.59;;;34.95;40.35
9523;BME280;63165;43.016;25.784;2023-06-22T10:46:14;100308.50;;;34.95;39.29
9523;BME280;63165;43.016;25.784;2023-06-22T10:48:41;100306.97;;;34.92;39.12
9523;BME280;63165;43.016;25.784;2023-06-22T10:51:10;100299.78;;;34.99;39.29
9523;BME280;63165;43.016;25.784;2023-06-22T10:53:36;100303.63;;;35.13;39.46
9523;BME280;63165;43.016;25.784;2023-06-22T10:56:05;100300.88;;;35.22;38.98
9523;BME280;63165;43.016;25.784;2023-06-22T10:58:32;100299.13;;;35.29;39.07
9523;BME280;63165;43.016;25.784;2023-06-22T11:00:59;100300.63;;;35.31;38.72
9523;BME280;63165;43.016;25.784;2023-06-22T11:03:26;100293.81;;;35.35;38.67
9523;BME280;63165;43.016;25.784;2023-06-22T11:05:53;100295.97;;;35.40;38.16
9523;BME280;63165;43.016;25.784;2023-06-22T11:08:20;100297.31;;;35.44;38.22
9523;BME280;63165;43.016;25.784;2023-06-22T11:10:47;100301.72;;;35.45;38.32
9523;BME280;63165;43.016;25.784;2023-06-22T11:13:15;100294.72;;;35.51;38.10
9523;BME280;63165;43.016;25.784;2023-06-22T11:15:42;100292.56;;;35.61;38.10
9523;BME280;63165;43.016;25.784;2023-06-22T11:18:09;100291.84;;;35.67;38.15
9523;BME280;63165;43.016;25.784;2023-06-22T11:20:36;100289.09;;;35.75;37.57
9523;BME280;63165;43.016;25.784;2023-06-22T11:23:06;100291.81;;;35.75;37.59
9523;BME280;63165;43.016;25.784;2023-06-22T11:25:33;100297.53;;;35.81;37.41
9523;BME280;63165;43.016;25.784;2023-06-22T11:28:03;100300.72;;;35.69;36.79
9523;BME280;63165;43.016;25.784;2023-06-22T11:30:32;100296.22;;;35.53;36.77
9523;BME280;63165;43.016;25.784;2023-06-22T11:32:59;100299.31;;;35.50;36.80
9523;BME280;63165;43.016;25.784;2023-06-22T11:35:26;100299.50;;;35.49;36.75
9523;BME280;63165;43.016;25.784;2023-06-22T11:37:53;100297.97;;;35.46;36.51
9523;BME280;63165;43.016;25.784;2023-06-22T11:40:21;100302.22;;;35.49;36.35
9523;BME280;63165;43.016;25.784;2023-06-22T11:42:48;100304.31;;;35.38;35.36
9523;BME280;63165;43.016;25.784;2023-06-22T11:45:15;100304.22;;;35.32;35.36
9523;BME280;63165;43.016;25.784;2023-06-22T11:47:44;100301.66;;;35.30;35.07
9523;BME280;63165;43.016;25.784;2023-06-22T11:50:11;100298.88;;;35.38;35.03
9523;BME280;63165;43.016;25.784;2023-06-22T11:52:38;100290.50;;;35.48;34.91
9523;BME280;63165;43.016;25.784;2023-06-22T11:55:06;100286.91;;;35.48;34.57
9523;BME280;63165;43.016;25.784;2023-06-22T11:57:33;100284.78;;;35.35;33.94
9523;BME280;63165;43.016;25.784;2023-06-22T12:00:00;100280.38;;;35.34;33.85
9523;BME280;63165;43.016;25.784;2023-06-22T12:02:31;100277.00;;;35.32;33.99
9523;BME280;63165;43.016;25.784;2023-06-22T12:04:59;100271.13;;;35.43;34.25
9523;BME280;63165;43.016;25.784;2023-06-22T12:07:30;100271.91;;;35.52;34.14
9523;BME280;63165;43.016;25.784;2023-06-22T12:09:56;100273.59;;;35.53;34.06
9523;BME280;63165;43.016;25.784;2023-06-22T12:12:23;100277.72;;;35.49;33.99
9523;BME280;63165;43.016;25.784;2023-06-22T12:14:50;100279.97;;;35.45;34.17
9523;BME280;63165;43.016;25.784;2023-06-22T12:17:17;100263.63;;;35.45;34.18
9523;BME280;63165;43.016;25.784;2023-06-22T12:19:44;100270.22;;;35.51;34.64
9523;BME280;63165;43.016;25.784;2023-06-22T12:22:13;100269.78;;;35.62;34.71
9523;BME280;63165;43.016;25.784;2023-06-22T12:24:40;100271.78;;;35.68;34.46
9523;BME280;63165;43.016;25.784;2023-06-22T12:27:07;100265.16;;;35.71;33.97
9523;BME280;63165;43.016;25.784;2023-06-22T12:29:35;100273.88;;;35.81;34.36
9523;BME280;63165;43.016;25.784;2023-06-22T12:32:02;100276.34;;;35.91;34.44
9523;BME280;63165;43.016;25.784;2023-06-22T12:34:29;100274.06;;;35.80;34.09
9523;BME280;63165;43.016;25.784;2023-06-22T12:36:56;100267.00;;;35.70;34.21
9523;BME280;63165;43.016;25.784;2023-06-22T12:39:24;100265.19;;;35.63;34.39
9523;BME280;63165;43.016;25.784;2023-06-22T12:41:51;100262.78;;;35.45;34.58
9523;BME280;63165;43.016;25.784;2023-06-22T12:44:18;100268.88;;;35.24;34.91
9523;BME280;63165;43.016;25.784;2023-06-22T12:46:45;100263.56;;;35.07;35.15
9523;BME280;63165;43.016;25.784;2023-06-22T12:49:12;100261.03;;;34.97;35.14